www.cux-wetter.de
Wetterdaten: Samstag, 28.02.2015
Datum Zeit Temp. A. Feuchte A. Luftdruck Regen Wind Richtung Richtung Sonnenschein Solar Taupunkt Windchill Windben
28.02.2015 00:00 3,5 C 78 % 1016,5 hPa 0,0 l/m 12,8 km/h (3 Bft) NW 320 0 min 0 W/m 0,0 C -1,5 C 12,8 km/h (3 Bft)
28.02.2015 00:14 3,0 C 77 % 1016,5 hPa 0,0 l/m 7,5 km/h (2 Bft) NW 310 0 min 0 W/m -0,6 C 2,0 C 7,5 km/h (2 Bft)
28.02.2015 00:30 2,8 C 77 % 1016,5 hPa 0,0 l/m 6,1 km/h (2 Bft) W-NW 285 0 min 0 W/m -0,8 C 2,8 C 6,1 km/h (2 Bft)
28.02.2015 00:45 2,1 C 77 % 1016,5 hPa 0,0 l/m 0,8 km/h (0 Bft) W 280 0 min 0 W/m -1,5 C 2,1 C 0,8 km/h (0 Bft)
28.02.2015 00:59 1,7 C 78 % 1016,5 hPa 0,0 l/m 5,4 km/h (2 Bft) W 280 0 min 0 W/m -1,7 C 1,7 C 5,4 km/h (2 Bft)
28.02.2015 01:15 1,3 C 78 % 1016,5 hPa 0,0 l/m 5,2 km/h (1 Bft) W 280 0 min 0 W/m -2,1 C 1,3 C 5,2 km/h (1 Bft)
28.02.2015 01:30 1,4 C 80 % 1016,5 hPa 0,0 l/m 7,5 km/h (2 Bft) W 275 0 min 0 W/m -1,7 C 0,3 C 7,5 km/h (2 Bft)
28.02.2015 01:44 1,7 C 81 % 1017,5 hPa 0,0 l/m 8,8 km/h (2 Bft) W 265 0 min 0 W/m -1,2 C -0,6 C 8,8 km/h (2 Bft)
28.02.2015 02:00 1,9 C 82 % 1017,5 hPa 0,0 l/m 15,0 km/h (3 Bft) W 280 0 min 0 W/m -0,8 C -4,7 C 15,0 km/h (3 Bft)
28.02.2015 02:15 1,9 C 82 % 1017,5 hPa 0,0 l/m 14,0 km/h (3 Bft) W 270 0 min 0 W/m -0,8 C -4,1 C 14,0 km/h (3 Bft)
28.02.2015 02:30 1,8 C 82 % 1017,5 hPa 0,0 l/m 13,1 km/h (3 Bft) W-NW 290 0 min 0 W/m -0,9 C -3,7 C 13,1 km/h (3 Bft)
28.02.2015 02:44 1,7 C 82 % 1017,5 hPa 0,0 l/m 10,7 km/h (2 Bft) W 270 0 min 0 W/m -1,0 C -2,1 C 10,7 km/h (2 Bft)
28.02.2015 03:00 1,6 C 82 % 1017,5 hPa 0,0 l/m 12,5 km/h (2 Bft) W 270 0 min 0 W/m -1,1 C -3,5 C 12,5 km/h (2 Bft)
28.02.2015 03:15 1,5 C 82 % 1017,5 hPa 0,0 l/m 10,0 km/h (2 Bft) W-SW 250 0 min 0 W/m -1,2 C -1,8 C 10,0 km/h (2 Bft)
28.02.2015 03:29 1,5 C 82 % 1017,5 hPa 0,0 l/m 12,1 km/h (2 Bft) W 260 0 min 0 W/m -1,2 C -3,3 C 12,1 km/h (2 Bft)
28.02.2015 03:45 1,5 C 83 % 1016,5 hPa 0,0 l/m 11,5 km/h (2 Bft) W 270 0 min 0 W/m -1,1 C -2,9 C 11,5 km/h (2 Bft)
28.02.2015 04:00 1,4 C 83 % 1016,5 hPa 0,0 l/m 8,9 km/h (2 Bft) W 270 0 min 0 W/m -1,2 C -1,0 C 8,9 km/h (2 Bft)
28.02.2015 04:15 1,7 C 83 % 1017,5 hPa 0,0 l/m 11,6 km/h (2 Bft) W 265 0 min 0 W/m -0,9 C -2,8 C 11,6 km/h (2 Bft)
28.02.2015 04:29 2,0 C 82 % 1017,5 hPa 0,0 l/m 11,6 km/h (2 Bft) W 270 0 min 0 W/m -0,7 C -2,4 C 11,6 km/h (2 Bft)
28.02.2015 04:45 2,0 C 82 % 1016,5 hPa 0,0 l/m 10,0 km/h (2 Bft) W-SW 255 0 min 0 W/m -0,7 C -1,2 C 10,0 km/h (2 Bft)
28.02.2015 05:00 2,0 C 80 % 1016,5 hPa 0,0 l/m 10,8 km/h (2 Bft) W-SW 250 0 min 0 W/m -1,1 C -1,8 C 10,8 km/h (2 Bft)
28.02.2015 05:14 1,4 C 79 % 1016,5 hPa 0,0 l/m 10,0 km/h (2 Bft) SW 235 0 min 0 W/m -1,8 C -1,9 C 10,0 km/h (2 Bft)
28.02.2015 05:30 1,1 C 79 % 1016,5 hPa 0,0 l/m 7,0 km/h (2 Bft) SW 215 0 min 0 W/m -2,1 C 0,5 C 7,0 km/h (2 Bft)
28.02.2015 05:45 0,3 C 79 % 1016,5 hPa 0,0 l/m 5,8 km/h (2 Bft) SW 230 0 min 0 W/m -2,9 C 0,3 C 5,8 km/h (2 Bft)
28.02.2015 05:59 0,0 C 79 % 1016,5 hPa 0,0 l/m 8,0 km/h (2 Bft) SW 215 0 min 0 W/m -3,2 C -1,6 C 8,0 km/h (2 Bft)
28.02.2015 06:14 0,1 C 80 % 1016,5 hPa 0,0 l/m 7,2 km/h (2 Bft) SW 225 0 min 0 W/m -2,9 C -0,7 C 7,2 km/h (2 Bft)
28.02.2015 06:30 0,3 C 81 % 1016,5 hPa 0,0 l/m 9,6 km/h (2 Bft) W-SW 240 0 min 0 W/m -2,6 C -2,8 C 9,6 km/h (2 Bft)
28.02.2015 06:45 0,4 C 82 % 1016,5 hPa 0,0 l/m 8,9 km/h (2 Bft) SW 230 0 min 0 W/m -2,3 C -2,1 C 8,9 km/h (2 Bft)
28.02.2015 07:00 0,3 C 82 % 1016,5 hPa 0,0 l/m 10,6 km/h (2 Bft) S-SW 205 0 min 0 W/m -2,4 C -3,6 C 10,6 km/h (2 Bft)
28.02.2015 07:15 -0,2 C 82 % 1016,5 hPa 0,0 l/m 9,4 km/h (2 Bft) SW 220 0 min 0 W/m -2,9 C -3,2 C 9,4 km/h (2 Bft)
28.02.2015 07:29 -0,6 C 81 % 1016,5 hPa 0,0 l/m 10,7 km/h (2 Bft) S-SW 210 0 min 0 W/m -3,4 C -4,7 C 10,7 km/h (2 Bft)
28.02.2015 07:45 -0,5 C 82 % 1016,5 hPa 0,0 l/m 10,5 km/h (2 Bft) SW 225 0 min 0 W/m -3,2 C -4,4 C 10,5 km/h (2 Bft)
28.02.2015 08:00 -0,1 C 82 % 1016,5 hPa 0,0 l/m 13,3 km/h (3 Bft) SW 230 0 min 0 W/m -2,8 C -6,0 C 13,3 km/h (3 Bft)
28.02.2015 08:15 0,2 C 83 % 1016,5 hPa 0,0 l/m 12,4 km/h (2 Bft) SW 230 0 min 0 W/m -2,3 C -5,1 C 12,4 km/h (2 Bft)
28.02.2015 08:29 0,6 C 83 % 1016,5 hPa 0,0 l/m 13,8 km/h (3 Bft) SW 230 0 min 0 W/m -1,9 C -5,5 C 13,8 km/h (3 Bft)
28.02.2015 08:45 0,6 C 83 % 1016,5 hPa 0,0 l/m 14,3 km/h (3 Bft) W-SW 240 0 min 0 W/m -1,9 C -5,8 C 14,3 km/h (3 Bft)
28.02.2015 09:00 0,6 C 83 % 1016,5 hPa 0,0 l/m 14,6 km/h (3 Bft) SW 235 0 min 0 W/m -1,9 C -6,0 C 14,6 km/h (3 Bft)
28.02.2015 09:14 0,9 C 83 % 1016,5 hPa 0,0 l/m 15,7 km/h (3 Bft) W-SW 240 0 min 0 W/m -1,7 C -6,3 C 15,7 km/h (3 Bft)
28.02.2015 09:30 1,5 C 82 % 1016,5 hPa 0,0 l/m 17,6 km/h (3 Bft) W-SW 240 0 min 0 W/m -1,2 C -6,6 C 17,6 km/h (3 Bft)
28.02.2015 09:45 3,4 C 83 % 1016,5 hPa 0,0 l/m 19,5 km/h (3 Bft) W-SW 250 0 min 0 W/m 0,8 C -5,0 C 19,5 km/h (3 Bft)
28.02.2015 09:59 3,6 C 83 % 1015,5 hPa 0,0 l/m 21,4 km/h (4 Bft) SW 235 0 min 0 W/m 1,0 C -5,5 C 21,4 km/h (4 Bft)
28.02.2015 10:14 4,2 C 82 % 1015,5 hPa 0,0 l/m 19,8 km/h (3 Bft) SW 220 0 min 0 W/m 1,4 C -4,1 C 19,8 km/h (3 Bft)
28.02.2015 10:30 4,8 C 81 % 1015,5 hPa 0,0 l/m 20,0 km/h (4 Bft) SW 235 0 min 0 W/m 1,8 C -3,4 C 20,0 km/h (4 Bft)
28.02.2015 10:45 5,4 C 79 % 1015,5 hPa 0,3 l/m 18,7 km/h (3 Bft) SW 230 0 min 0 W/m 2,1 C -2,1 C 18,7 km/h (3 Bft)
28.02.2015 10:59 5,9 C 76 % 1015,5 hPa 0,0 l/m 22,5 km/h (4 Bft) W 265 0 min 0 W/m 2,0 C -2,9 C 22,5 km/h (4 Bft)
28.02.2015 11:15 6,4 C 71 % 1015,5 hPa 0,0 l/m 25,9 km/h (4 Bft) W 260 0 min 0 W/m 1,5 C -3,3 C 25,9 km/h (4 Bft)
28.02.2015 11:30 6,6 C 55 % 1015,5 hPa 0,0 l/m 28,8 km/h (5 Bft) W 260 0 min 0 W/m -1,8 C -3,8 C 28,8 km/h (5 Bft)
28.02.2015 11:44 7,2 C 40 % 1015,5 hPa 0,0 l/m 27,7 km/h (5 Bft) W 260 0 min 0 W/m -5,5 C -2,7 C 27,7 km/h (5 Bft)
28.02.2015 12:00 7,2 C 40 % 1015,5 hPa 0,0 l/m 32,5 km/h (5 Bft) W 270 0 min 0 W/m -5,5 C -3,8 C 32,5 km/h (5 Bft)
28.02.2015 12:15 7,2 C 40 % 1015,5 hPa 0,0 l/m 39,1 km/h (6 Bft) W 260 0 min 0 W/m -5,5 C -5,1 C 39,1 km/h (6 Bft)
28.02.2015 12:29 7,2 C 40 % 1014,5 hPa 0,0 l/m 34,5 km/h (5 Bft) W 270 0 min 0 W/m -5,5 C -4,3 C 34,5 km/h (5 Bft)
28.02.2015 12:45 7,2 C 40 % 1014,5 hPa 0,0 l/m 31,7 km/h (5 Bft) W 270 0 min 0 W/m -5,5 C -3,7 C 31,7 km/h (5 Bft)
28.02.2015 13:00 7,2 C 40 % 1014,5 hPa 0,0 l/m 30,0 km/h (5 Bft) W-SW 250 0 min 0 W/m -5,5 C -3,3 C 30,0 km/h (5 Bft)
28.02.2015 13:14 7,2 C 40 % 1014,5 hPa 0,0 l/m 29,3 km/h (5 Bft) W-SW 245 0 min 0 W/m -5,5 C -3,1 C 29,3 km/h (5 Bft)
28.02.2015 13:30 7,2 C 40 % 1014,5 hPa 0,0 l/m 35,8 km/h (5 Bft) W 270 0 min 0 W/m -5,5 C -4,5 C 35,8 km/h (5 Bft)
28.02.2015 13:45 7,2 C 40 % 1014,5 hPa 0,0 l/m 39,8 km/h (6 Bft) W 270 0 min 0 W/m -5,5 C -5,2 C 39,8 km/h (6 Bft)
28.02.2015 13:59 7,2 C 40 % 1014,5 hPa 0,0 l/m 36,1 km/h (5 Bft) W 275 0 min 0 W/m -5,5 C -4,6 C 36,1 km/h (5 Bft)
28.02.2015 14:14 8,6 C 95 % 1013,5 hPa 0,0 l/m 32,2 km/h (5 Bft) W 270 0 min 0 W/m 7,8 C -1,8 C 32,2 km/h (5 Bft)
28.02.2015 14:30 8,6 C 95 % 1013,5 hPa 0,0 l/m 31,5 km/h (5 Bft) W 275 0 min 0 W/m 7,8 C -1,6 C 31,5 km/h (5 Bft)
28.02.2015 14:45 8,6 C 95 % 1013,5 hPa 0,0 l/m 25,4 km/h (4 Bft) W-SW 250 0 min 0 W/m 7,8 C -0,2 C 25,4 km/h (4 Bft)
28.02.2015 14:59 8,6 C 95 % 1013,5 hPa 0,0 l/m 30,7 km/h (5 Bft) W-SW 255 0 min 0 W/m 7,8 C -1,5 C 30,7 km/h (5 Bft)
28.02.2015 15:15 8,6 C 95 % 1012,5 hPa 0,0 l/m 29,6 km/h (5 Bft) W-SW 255 0 min 0 W/m 7,8 C -1,2 C 29,6 km/h (5 Bft)
28.02.2015 15:30 8,6 C 95 % 1012,5 hPa 0,0 l/m 29,4 km/h (5 Bft) W 270 0 min 0 W/m 7,8 C -1,2 C 29,4 km/h (5 Bft)
28.02.2015 15:44 8,6 C 95 % 1012,5 hPa 0,0 l/m 28,8 km/h (5 Bft) W-SW 245 0 min 0 W/m 7,8 C -1,0 C 28,8 km/h (5 Bft)
28.02.2015 16:00 8,6 C 95 % 1012,5 hPa 0,0 l/m 25,1 km/h (4 Bft) W-SW 245 0 min 0 W/m 7,8 C -0,1 C 25,1 km/h (4 Bft)
28.02.2015 16:14 8,6 C 95 % 1011,5 hPa 0,0 l/m 29,0 km/h (5 Bft) SW 230 0 min 0 W/m 7,8 C -1,1 C 29,0 km/h (5 Bft)
28.02.2015 16:30 8,6 C 95 % 1011,5 hPa 0,0 l/m 28,5 km/h (5 Bft) W-SW 240 0 min 0 W/m 7,8 C -1,0 C 28,5 km/h (5 Bft)
28.02.2015 16:44 8,6 C 95 % 1011,5 hPa 0,0 l/m 33,2 km/h (5 Bft) W-SW 240 0 min 0 W/m 7,8 C -2,0 C 33,2 km/h (5 Bft)
28.02.2015 17:00 7,6 C 95 % 1011,5 hPa 0,0 l/m 26,9 km/h (4 Bft) SW 235 0 min 0 W/m 6,9 C -1,9 C 26,9 km/h (4 Bft)
28.02.2015 17:15 7,6 C 95 % 1010,5 hPa 0,0 l/m 23,3 km/h (4 Bft) W-SW 240 0 min 0 W/m 6,9 C -0,9 C 23,3 km/h (4 Bft)
28.02.2015 17:29 7,6 C 95 % 1010,5 hPa 0,0 l/m 20,9 km/h (4 Bft) SW 235 0 min 0 W/m 6,9 C -0,1 C 20,9 km/h (4 Bft)
28.02.2015 17:45 7,6 C 95 % 1010,5 hPa 0,0 l/m 22,5 km/h (4 Bft) SW 220 0 min 0 W/m 6,9 C -0,7 C 22,5 km/h (4 Bft)
28.02.2015 17:59 7,6 C 95 % 1010,5 hPa 0,0 l/m 20,1 km/h (4 Bft) SW 215 0 min 0 W/m 6,9 C 0,2 C 20,1 km/h (4 Bft)
28.02.2015 18:14 7,6 C 95 % 1010,5 hPa 0,0 l/m 22,1 km/h (4 Bft) SW 225 0 min 0 W/m 6,9 C -0,5 C 22,1 km/h (4 Bft)
28.02.2015 18:30 7,6 C 95 % 1010,5 hPa 0,0 l/m 18,0 km/h (3 Bft) SW 215 0 min 0 W/m 6,9 C 0,9 C 18,0 km/h (3 Bft)
28.02.2015 18:45 7,6 C 95 % 1010,5 hPa 0,0 l/m 15,2 km/h (3 Bft) S-SW 195 0 min 0 W/m 6,9 C 2,1 C 15,2 km/h (3 Bft)
28.02.2015 18:59 7,6 C 95 % 1009,5 hPa 0,0 l/m 15,0 km/h (3 Bft) S-SW 195 0 min 0 W/m 6,9 C 2,2 C 15,0 km/h (3 Bft)
28.02.2015 19:15 7,6 C 95 % 1009,5 hPa 0,0 l/m 14,5 km/h (3 Bft) S 185 0 min 0 W/m 6,9 C 2,5 C 14,5 km/h (3 Bft)
28.02.2015 19:30 5,8 C 95 % 1009,5 hPa 0,0 l/m 16,3 km/h (3 Bft) S-SW 205 0 min 0 W/m 5,1 C -0,6 C 16,3 km/h (3 Bft)
28.02.2015 19:44 5,8 C 95 % 1009,5 hPa 0,0 l/m 17,7 km/h (3 Bft) S-SW 200 0 min 0 W/m 5,1 C -1,2 C 17,7 km/h (3 Bft)
28.02.2015 20:00 5,8 C 95 % 1009,5 hPa 0,0 l/m 17,1 km/h (3 Bft) S-SW 200 0 min 0 W/m 5,1 C -0,9 C 17,1 km/h (3 Bft)
28.02.2015 20:15 5,8 C 95 % 1009,5 hPa 0,0 l/m 15,6 km/h (3 Bft) S-SW 205 0 min 0 W/m 5,1 C -0,2 C 15,6 km/h (3 Bft)
28.02.2015 20:29 5,8 C 95 % 1008,5 hPa 0,0 l/m 18,2 km/h (3 Bft) S 185 0 min 0 W/m 5,1 C -1,4 C 18,2 km/h (3 Bft)
28.02.2015 20:45 5,8 C 95 % 1008,5 hPa 0,0 l/m 20,3 km/h (4 Bft) S-SW 200 0 min 0 W/m 5,1 C -2,3 C 20,3 km/h (4 Bft)
28.02.2015 21:00 5,8 C 95 % 1008,5 hPa 0,0 l/m 23,1 km/h (4 Bft) SW 215 0 min 0 W/m 5,1 C -3,2 C 23,1 km/h (4 Bft)
28.02.2015 21:14 5,8 C 95 % 1007,5 hPa 0,0 l/m 22,6 km/h (4 Bft) S-SW 200 0 min 0 W/m 5,1 C -3,1 C 22,6 km/h (4 Bft)
28.02.2015 21:30 5,8 C 95 % 1007,5 hPa 0,0 l/m 21,9 km/h (4 Bft) S-SW 205 0 min 0 W/m 5,1 C -2,8 C 21,9 km/h (4 Bft)
28.02.2015 21:45 5,8 C 95 % 1007,5 hPa 0,0 l/m 23,6 km/h (4 Bft) SW 225 0 min 0 W/m 5,1 C -3,4 C 23,6 km/h (4 Bft)
28.02.2015 21:59 5,8 C 95 % 1006,5 hPa 0,0 l/m 25,0 km/h (4 Bft) SW 220 0 min 0 W/m 5,1 C -3,9 C 25,0 km/h (4 Bft)
28.02.2015 22:14 5,4 C 95 % 1006,5 hPa 0,0 l/m 27,8 km/h (5 Bft) SW 225 0 min 0 W/m 4,7 C -5,2 C 27,8 km/h (5 Bft)
28.02.2015 22:30 5,4 C 95 % 1006,5 hPa 0,0 l/m 31,1 km/h (5 Bft) W-SW 240 0 min 0 W/m 4,7 C -6,1 C 31,1 km/h (5 Bft)
28.02.2015 22:44 5,4 C 95 % 1005,5 hPa 0,0 l/m 28,9 km/h (5 Bft) SW 225 0 min 0 W/m 4,7 C -5,5 C 28,9 km/h (5 Bft)
28.02.2015 23:00 5,4 C 95 % 1005,5 hPa 0,0 l/m 25,4 km/h (4 Bft) S-SW 205 0 min 0 W/m 4,7 C -4,5 C 25,4 km/h (4 Bft)
28.02.2015 23:15 5,4 C 95 % 1004,5 hPa 0,0 l/m 26,6 km/h (4 Bft) SW 220 0 min 0 W/m 4,7 C -4,9 C 26,6 km/h (4 Bft)
28.02.2015 23:30 5,4 C 95 % 1004,5 hPa 0,0 l/m 31,3 km/h (5 Bft) SW 225 0 min 0 W/m 4,7 C -6,1 C 31,3 km/h (5 Bft)
28.02.2015 23:44 5,4 C 95 % 1004,5 hPa 0,0 l/m 29,1 km/h (5 Bft) SW 225 0 min 0 W/m 4,7 C -5,6 C 29,1 km/h (5 Bft)
_ Min-Zeit 07:29 11:44 23:15 - 00:45 - - - - 11:44 09:30 00:45
Minimum _ -0,6 C 40 % 1004,5 hPa - 0,8 km/h (0 Bft) - - - - -5,5 C -6,6 C 0,8 km/h (0 Bft)
_ Max-Zeit 14:14 14:14 01:44 10:45 13:45 - - 00:00 00:00 14:14 00:30 13:45
Maximum _ 8,6 C 95 % 1017,5 hPa 0,3 l/m 39,8 km/h
W (6 Bft)
- - 0 min 0 W/m 7,8 C 2,8 C 39,8 km/h
W (6 Bft)
Durchschnitt _ 4,5 C 82 % 1013,5 hPa #0,3 l/m 19,4 km/h (3 Bft) SW - #0 min. 0 W/m 1,4 C -2,4 C 19,4 km/h (3 Bft)
copyright by Holger Just